createdAt,value
2023-03-19T00:01:06.931Z,99.90
2023-03-19T00:03:57.677Z,99.90
2023-03-19T00:06:39.884Z,99.90
2023-03-19T00:09:22.713Z,99.90
2023-03-19T00:12:06.102Z,98.20
2023-03-19T00:14:48.490Z,99.90
2023-03-19T00:17:31.658Z,69.60
2023-03-19T00:20:18.315Z,89.20
2023-03-19T00:23:00.780Z,68.70
2023-03-19T00:25:43.313Z,73.10
2023-03-19T00:28:26.045Z,99.90
2023-03-19T00:31:14.103Z,99.90
2023-03-19T00:34:00.058Z,99.90
2023-03-19T00:36:42.722Z,99.90
2023-03-19T00:39:24.974Z,99.90
2023-03-19T00:42:07.769Z,99.90
2023-03-19T00:44:50.128Z,99.90
2023-03-19T00:47:32.736Z,99.90
2023-03-19T00:50:15.052Z,98.00
2023-03-19T00:52:57.826Z,95.20
2023-03-19T00:55:40.096Z,78.50
2023-03-19T00:58:22.686Z,62.20
2023-03-19T01:01:05.936Z,45.40
2023-03-19T01:03:49.122Z,5.30
2023-03-19T01:06:31.327Z,1.00
2023-03-19T01:09:13.734Z,1.00
2023-03-19T01:11:56.871Z,1.00
2023-03-19T01:14:39.657Z,1.00
2023-03-19T01:17:22.372Z,1.00
2023-03-19T01:20:12.977Z,1.00
2023-03-19T01:22:56.142Z,1.00
2023-03-19T01:25:40.368Z,1.00
2023-03-19T01:28:22.856Z,11.10
2023-03-19T01:31:08.908Z,99.90
2023-03-19T01:34:10.048Z,99.90
2023-03-19T01:37:03.254Z,99.90
2023-03-19T01:39:48.186Z,99.90
2023-03-19T01:42:31.496Z,99.90
2023-03-19T01:45:37.187Z,99.90
2023-03-19T01:49:02.799Z,99.90
2023-03-19T01:51:46.687Z,99.90
2023-03-19T01:54:53.645Z,37.80
2023-03-19T01:58:01.511Z,1.00
2023-03-19T02:00:57.167Z,1.00
2023-03-19T02:03:40.099Z,1.00
2023-03-19T02:06:33.196Z,1.00
2023-03-19T02:09:16.607Z,1.00
2023-03-19T02:12:01.749Z,1.00
2023-03-19T02:14:44.209Z,1.00
2023-03-19T02:17:28.768Z,99.90
2023-03-19T02:20:32.993Z,1.00
2023-03-19T02:23:39.480Z,99.90
2023-03-19T02:26:30.738Z,99.90
2023-03-19T02:29:17.985Z,99.90
2023-03-19T02:32:02.759Z,99.90
2023-03-19T02:34:45.831Z,99.90
2023-03-19T02:37:33.520Z,99.90
2023-03-19T02:40:29.675Z,99.90
2023-03-19T02:43:12.056Z,99.90
2023-03-19T02:45:55.414Z,99.90
2023-03-19T02:48:38.198Z,99.90
2023-03-19T02:51:20.948Z,99.90
2023-03-19T02:54:05.838Z,99.90
2023-03-19T02:56:49.146Z,99.90
2023-03-19T02:59:31.640Z,99.90
2023-03-19T03:02:14.292Z,99.90
2023-03-19T03:04:56.628Z,99.90
2023-03-19T03:07:43.290Z,99.90
2023-03-19T03:10:26.102Z,99.90
2023-03-19T03:13:09.310Z,99.90
2023-03-19T03:15:51.702Z,99.90
2023-03-19T03:18:34.148Z,99.90
2023-03-19T03:21:20.117Z,99.90
2023-03-19T03:24:02.696Z,99.90
2023-03-19T03:26:45.212Z,1.00
2023-03-19T03:29:27.705Z,1.00
2023-03-19T03:32:10.150Z,1.00
2023-03-19T03:34:52.532Z,1.00
2023-03-19T03:37:34.829Z,1.00
2023-03-19T03:40:17.748Z,1.00
2023-03-19T03:43:00.311Z,1.00
2023-03-19T03:45:44.455Z,24.30
2023-03-19T03:48:27.150Z,99.90
2023-03-19T03:51:10.151Z,99.90
2023-03-19T03:53:52.470Z,99.90
2023-03-19T03:56:35.160Z,99.90
2023-03-19T03:59:17.410Z,99.90
2023-03-19T04:01:59.930Z,99.90
2023-03-19T04:04:44.021Z,99.90
2023-03-19T04:07:27.169Z,99.90
2023-03-19T04:10:12.882Z,99.90
2023-03-19T04:12:55.413Z,99.90
2023-03-19T04:15:37.835Z,99.90
2023-03-19T04:18:21.844Z,99.90
2023-03-19T04:21:05.898Z,99.90
2023-03-19T04:23:48.368Z,99.90
2023-03-19T04:26:30.999Z,99.90
2023-03-19T04:29:13.480Z,99.90
2023-03-19T04:31:55.793Z,99.90
2023-03-19T04:34:38.312Z,99.90
2023-03-19T04:37:20.530Z,99.90
2023-03-19T04:40:06.628Z,99.90
2023-03-19T04:42:51.278Z,99.90
2023-03-19T04:46:00.419Z,99.90
2023-03-19T04:48:44.029Z,99.90
2023-03-19T04:51:26.601Z,99.90
2023-03-19T04:54:08.973Z,99.90
2023-03-19T04:56:53.217Z,99.90
2023-03-19T04:59:38.021Z,99.90
2023-03-19T05:02:22.038Z,99.90
2023-03-19T05:05:05.555Z,99.90
2023-03-19T05:07:48.113Z,99.90
2023-03-19T05:10:32.689Z,99.90
2023-03-19T05:13:15.258Z,99.90
2023-03-19T05:16:04.652Z,99.90
2023-03-19T05:18:47.893Z,99.90
2023-03-19T05:21:30.575Z,99.90
2023-03-19T05:24:13.722Z,99.90
2023-03-19T05:26:57.182Z,99.90
2023-03-19T05:30:03.245Z,99.90
2023-03-19T05:33:04.525Z,99.90
2023-03-19T05:35:52.032Z,99.90
2023-03-19T05:38:57.454Z,99.90
2023-03-19T05:41:46.522Z,99.90
2023-03-19T05:44:34.233Z,99.90
2023-03-19T05:47:32.766Z,99.90
2023-03-19T05:50:15.454Z,99.90
2023-03-19T05:53:10.557Z,86.50
2023-03-19T05:55:56.503Z,68.00
2023-03-19T05:58:40.403Z,54.80
2023-03-19T06:01:23.316Z,51.90
2023-03-19T06:04:07.374Z,72.90
2023-03-19T06:06:50.860Z,81.90
2023-03-19T06:09:35.058Z,76.80
2023-03-19T06:12:18.255Z,76.00
2023-03-19T06:15:26.728Z,60.10
2023-03-19T06:18:24.535Z,71.30
2023-03-19T06:21:07.946Z,45.50
2023-03-19T06:23:51.409Z,68.60
2023-03-19T06:26:39.773Z,56.40
2023-03-19T06:29:29.531Z,56.90
2023-03-19T06:32:18.149Z,48.60
2023-03-19T06:35:01.197Z,66.10
2023-03-19T06:37:45.221Z,99.90
2023-03-19T06:40:28.357Z,79.10
2023-03-19T06:43:11.151Z,65.40
2023-03-19T06:45:53.776Z,4.70
2023-03-19T06:48:37.492Z,1.00
2023-03-19T06:51:20.149Z,1.00
2023-03-19T06:54:03.085Z,1.00
2023-03-19T06:56:46.434Z,1.00
2023-03-19T06:59:29.061Z,1.00
2023-03-19T07:02:12.548Z,1.00
2023-03-19T07:04:55.238Z,1.00
2023-03-19T07:07:37.687Z,1.00
2023-03-19T07:10:21.373Z,1.00
2023-03-19T07:13:05.501Z,1.00
2023-03-19T07:15:48.728Z,1.00
2023-03-19T07:18:31.812Z,1.00
2023-03-19T07:21:14.669Z,1.00
2023-03-19T07:23:57.256Z,1.00
2023-03-19T07:26:40.626Z,1.00
2023-03-19T07:29:23.166Z,1.00
2023-03-19T07:32:06.416Z,1.00
2023-03-19T07:34:49.472Z,1.00
2023-03-19T07:37:32.568Z,1.00
2023-03-19T07:40:15.476Z,1.00
2023-03-19T07:42:58.214Z,1.00
2023-03-19T07:45:40.614Z,1.00
2023-03-19T07:48:23.295Z,1.00
2023-03-19T07:51:06.704Z,1.00
2023-03-19T07:53:49.270Z,1.00
2023-03-19T07:56:32.041Z,5.10
2023-03-19T07:59:14.610Z,1.00
2023-03-19T08:01:56.953Z,24.20
2023-03-19T08:04:40.544Z,1.00
2023-03-19T08:07:23.108Z,1.00
2023-03-19T08:10:07.302Z,1.00
2023-03-19T08:12:49.894Z,1.00
2023-03-19T08:15:32.962Z,12.00
2023-03-19T08:18:15.607Z,1.00
2023-03-19T08:20:58.157Z,39.10
2023-03-19T08:23:40.592Z,32.90
2023-03-19T08:26:23.176Z,93.10
2023-03-19T08:29:06.659Z,63.80
2023-03-19T08:31:49.391Z,90.10
2023-03-19T08:34:33.043Z,59.40
2023-03-19T08:37:15.700Z,98.40
2023-03-19T08:39:58.258Z,82.30
2023-03-19T08:42:45.118Z,7.20
2023-03-19T08:45:27.818Z,1.00
2023-03-19T08:48:10.271Z,1.00
2023-03-19T08:50:57.950Z,24.00
2023-03-19T08:53:40.657Z,48.70
2023-03-19T08:56:23.166Z,2.60
2023-03-19T08:59:06.232Z,18.30
2023-03-19T09:01:52.953Z,1.00
2023-03-19T09:04:39.060Z,20.50
2023-03-19T09:07:22.789Z,1.00
2023-03-19T09:10:05.752Z,38.20
2023-03-19T09:12:48.632Z,59.60
2023-03-19T09:15:31.664Z,39.00
2023-03-19T09:18:13.976Z,46.80
2023-03-19T09:20:56.501Z,54.00
2023-03-19T09:23:38.677Z,43.40
2023-03-19T09:26:21.142Z,43.30
2023-03-19T09:29:03.912Z,97.80
2023-03-19T09:31:46.804Z,99.90
2023-03-19T09:34:29.305Z,99.90
2023-03-19T09:37:11.965Z,35.50
2023-03-19T09:39:54.338Z,53.70
2023-03-19T09:43:28.301Z,47.10
2023-03-19T09:46:16.197Z,5.60
2023-03-19T09:49:24.167Z,1.00
2023-03-19T09:52:30.596Z,1.00
2023-03-19T09:55:31.522Z,4.10
2023-03-19T09:58:23.293Z,1.00
2023-03-19T10:01:06.649Z,1.00
2023-03-19T10:04:27.780Z,1.00
2023-03-19T10:07:44.200Z,1.00
2023-03-19T10:10:45.027Z,1.00
2023-03-19T10:13:46.375Z,1.00
2023-03-19T10:16:30.331Z,1.00
2023-03-19T10:19:18.518Z,1.00
2023-03-19T10:22:05.835Z,1.00
2023-03-19T10:24:50.552Z,1.00
2023-03-19T10:27:32.852Z,1.00
2023-03-19T10:30:17.229Z,1.00
2023-03-19T10:33:19.582Z,1.00
2023-03-19T10:36:10.094Z,1.00
2023-03-19T10:38:52.815Z,1.00
2023-03-19T10:42:14.132Z,1.00
2023-03-19T10:45:05.216Z,1.00
2023-03-19T10:47:47.865Z,1.00
2023-03-19T10:50:43.478Z,1.00
2023-03-19T10:53:33.876Z,1.00
2023-03-19T10:56:29.607Z,1.00
2023-03-19T10:59:23.593Z,1.00
2023-03-19T11:02:31.347Z,1.00
2023-03-19T11:05:13.910Z,1.00
2023-03-19T11:08:02.493Z,1.00
2023-03-19T11:10:49.811Z,48.40
2023-03-19T11:13:35.834Z,1.90
2023-03-19T11:16:18.684Z,1.00
2023-03-19T11:19:01.298Z,22.80
2023-03-19T11:21:54.066Z,1.00
2023-03-19T11:24:41.609Z,1.00
2023-03-19T11:27:30.002Z,1.00
2023-03-19T11:30:19.950Z,1.00
2023-03-19T11:33:22.077Z,1.00
2023-03-19T11:36:14.340Z,1.00
2023-03-19T11:39:13.149Z,1.00
2023-03-19T11:42:23.366Z,1.00
2023-03-19T11:45:29.315Z,1.00
2023-03-19T11:48:14.486Z,15.00
2023-03-19T11:51:15.363Z,7.30
2023-03-19T11:54:14.726Z,24.90
2023-03-19T11:57:02.245Z,1.00
2023-03-19T11:59:56.633Z,1.00
2023-03-19T12:02:54.329Z,2.40
2023-03-19T12:05:49.736Z,7.40
2023-03-19T12:08:58.167Z,71.70
2023-03-19T12:12:26.603Z,58.40
2023-03-19T12:15:37.580Z,25.10
2023-03-19T12:18:42.024Z,21.90
2023-03-19T12:21:46.775Z,55.50
2023-03-19T12:25:10.018Z,88.40
2023-03-19T12:28:18.184Z,99.90
2023-03-19T12:31:07.545Z,99.90
2023-03-19T12:34:00.709Z,99.90
2023-03-19T12:37:18.031Z,99.90
2023-03-19T12:40:15.040Z,99.90
2023-03-19T12:42:59.834Z,99.90
2023-03-19T12:45:46.724Z,99.90
2023-03-19T12:48:33.786Z,99.90
2023-03-19T12:51:20.477Z,99.90
2023-03-19T12:54:19.861Z,99.90
2023-03-19T12:57:42.809Z,99.90
2023-03-19T13:00:25.513Z,99.90
2023-03-19T13:03:25.487Z,99.90
2023-03-19T13:06:24.086Z,99.90
2023-03-19T13:09:26.031Z,99.90
2023-03-19T13:12:12.412Z,99.90
2023-03-19T13:15:00.139Z,99.90
2023-03-19T13:17:54.467Z,99.90
2023-03-19T13:21:11.853Z,99.90
2023-03-19T13:24:05.153Z,99.90
2023-03-19T13:26:49.890Z,99.90
2023-03-19T13:29:34.968Z,99.90
2023-03-19T13:32:29.797Z,99.90
2023-03-19T13:35:34.981Z,99.90
2023-03-19T13:38:25.114Z,99.90
2023-03-19T13:41:33.527Z,99.90
2023-03-19T13:44:22.532Z,99.90
2023-03-19T13:47:26.836Z,99.90
2023-03-19T13:50:12.671Z,99.90
2023-03-19T13:53:23.415Z,99.90
2023-03-19T13:56:22.465Z,99.90
2023-03-19T13:59:17.280Z,99.90
2023-03-19T14:02:01.566Z,99.90
2023-03-19T14:05:02.234Z,99.90
2023-03-19T14:07:51.627Z,99.90
2023-03-19T14:10:34.502Z,99.90
2023-03-19T14:13:39.671Z,99.90
2023-03-19T14:16:26.740Z,99.90
2023-03-19T14:19:18.259Z,99.90
2023-03-19T14:22:02.714Z,99.90
2023-03-19T14:25:06.019Z,99.90
2023-03-19T14:27:50.784Z,99.90
2023-03-19T14:30:45.659Z,99.90
2023-03-19T14:33:45.217Z,99.90
2023-03-19T14:36:28.859Z,99.90
2023-03-19T14:39:33.186Z,99.90
2023-03-19T14:42:32.390Z,99.90
2023-03-19T14:45:48.770Z,99.90
2023-03-19T14:48:59.138Z,99.90
2023-03-19T14:51:50.858Z,99.90
2023-03-19T14:54:41.153Z,99.90
2023-03-19T14:57:35.385Z,99.90
2023-03-19T15:00:19.611Z,99.90
2023-03-19T15:03:02.798Z,99.90
2023-03-19T15:05:50.366Z,99.90
2023-03-19T15:08:36.789Z,99.90
2023-03-19T15:11:57.975Z,99.90
2023-03-19T15:14:49.351Z,99.90
2023-03-19T15:17:32.708Z,99.90
2023-03-19T15:20:23.473Z,99.90
2023-03-19T15:23:23.483Z,99.90
2023-03-19T15:26:11.924Z,99.90
2023-03-19T15:28:55.380Z,99.90
2023-03-19T15:31:53.973Z,99.90
2023-03-19T15:34:46.285Z,99.90
2023-03-19T15:37:31.316Z,99.90
2023-03-19T15:40:16.407Z,99.90
2023-03-19T15:43:03.073Z,99.90
2023-03-19T15:45:50.222Z,56.60
2023-03-19T15:48:45.182Z,52.70
2023-03-19T15:51:29.046Z,99.90
2023-03-19T15:54:12.048Z,99.90
2023-03-19T15:56:56.539Z,99.50
2023-03-19T15:59:38.868Z,1.00
2023-03-19T16:02:26.951Z,21.80
2023-03-19T16:05:27.615Z,1.00
2023-03-19T16:08:25.412Z,54.00
2023-03-19T16:11:35.820Z,1.00
2023-03-19T16:14:31.470Z,1.00
2023-03-19T16:17:18.277Z,1.00
2023-03-19T16:20:03.823Z,14.80
2023-03-19T16:22:58.769Z,1.00
2023-03-19T16:25:46.475Z,1.00
2023-03-19T16:28:28.824Z,1.00
2023-03-19T16:31:22.395Z,1.00
2023-03-19T16:34:04.831Z,4.80
2023-03-19T16:36:48.665Z,1.00
2023-03-19T16:39:30.967Z,1.00
2023-03-19T16:42:14.724Z,1.00
2023-03-19T16:44:58.032Z,1.00
2023-03-19T16:47:41.494Z,1.00
2023-03-19T16:50:38.444Z,1.00
2023-03-19T16:53:30.062Z,1.00
2023-03-19T16:56:16.059Z,1.00
2023-03-19T16:59:02.379Z,1.00
2023-03-19T17:01:44.624Z,1.00
2023-03-19T17:04:28.572Z,1.00
2023-03-19T17:07:13.171Z,1.00
2023-03-19T17:09:56.122Z,1.00
2023-03-19T17:12:38.684Z,1.00
2023-03-19T17:15:27.317Z,1.00
2023-03-19T17:18:22.080Z,1.00
2023-03-19T17:21:17.639Z,1.00
2023-03-19T17:24:16.666Z,1.00
2023-03-19T17:27:02.320Z,1.00
2023-03-19T17:29:44.630Z,1.00
2023-03-19T17:32:28.737Z,1.00
2023-03-19T17:35:20.745Z,1.00
2023-03-19T17:38:03.863Z,1.00
2023-03-19T17:40:47.531Z,1.00
2023-03-19T17:43:30.377Z,1.00
2023-03-19T17:46:20.293Z,1.00
2023-03-19T17:49:03.258Z,1.00
2023-03-19T17:51:46.267Z,1.00
2023-03-19T17:54:29.275Z,1.00
2023-03-19T17:57:14.288Z,1.00
2023-03-19T17:59:57.396Z,99.90
2023-03-19T18:02:41.292Z,1.00
2023-03-19T18:05:26.441Z,1.00
2023-03-19T18:08:16.856Z,1.00
2023-03-19T18:10:59.799Z,1.00
2023-03-19T18:13:43.209Z,1.00
2023-03-19T18:16:33.545Z,1.00
2023-03-19T18:19:37.756Z,1.00
2023-03-19T18:22:21.694Z,99.90
2023-03-19T18:25:04.691Z,99.90
2023-03-19T18:27:49.728Z,99.90
2023-03-19T18:30:35.070Z,1.00
2023-03-19T18:33:26.228Z,1.00
2023-03-19T18:36:08.956Z,1.00
2023-03-19T18:38:52.628Z,99.90
2023-03-19T18:41:35.244Z,99.90
2023-03-19T18:44:21.060Z,99.90
2023-03-19T18:47:04.010Z,99.90
2023-03-19T18:49:47.277Z,99.90
2023-03-19T18:52:30.229Z,99.90
2023-03-19T18:55:14.748Z,99.90
2023-03-19T18:58:02.356Z,99.90
2023-03-19T19:00:46.180Z,1.00
2023-03-19T19:03:30.584Z,1.00
2023-03-19T19:06:24.804Z,1.00
2023-03-19T19:09:12.562Z,1.00
2023-03-19T19:11:57.734Z,1.00
2023-03-19T19:14:40.349Z,92.30
2023-03-19T19:17:24.698Z,99.90
2023-03-19T19:20:07.422Z,98.40
2023-03-19T19:22:51.716Z,99.90
2023-03-19T19:25:34.129Z,99.90
2023-03-19T19:28:21.440Z,99.90
2023-03-19T19:31:04.354Z,99.90
2023-03-19T19:33:46.984Z,99.90
2023-03-19T19:36:30.150Z,99.90
2023-03-19T19:39:13.566Z,99.90
2023-03-19T19:41:56.854Z,99.90
2023-03-19T19:44:40.385Z,99.90
2023-03-19T19:47:22.793Z,1.00
2023-03-19T19:50:06.690Z,1.00
2023-03-19T19:52:49.546Z,1.00
2023-03-19T19:55:32.646Z,6.00
2023-03-19T19:58:24.656Z,79.60
2023-03-19T20:01:17.739Z,99.90
2023-03-19T20:04:00.256Z,99.90
2023-03-19T20:06:43.438Z,99.90
2023-03-19T20:09:27.049Z,99.90
2023-03-19T20:12:36.042Z,99.90
2023-03-19T20:15:23.821Z,99.90
2023-03-19T20:18:06.798Z,99.90
2023-03-19T20:20:50.817Z,1.00
2023-03-19T20:23:33.949Z,1.00
2023-03-19T20:26:21.198Z,1.00
2023-03-19T20:29:04.795Z,1.00
2023-03-19T20:31:47.413Z,1.00
2023-03-19T20:34:39.129Z,16.70
2023-03-19T20:37:23.460Z,69.70
2023-03-19T20:40:06.959Z,99.90
2023-03-19T20:42:52.003Z,99.90
2023-03-19T20:45:36.635Z,99.90
2023-03-19T20:48:19.412Z,99.90
2023-03-19T20:51:02.800Z,99.90
2023-03-19T20:53:46.561Z,99.90
2023-03-19T20:56:30.823Z,99.90
2023-03-19T20:59:13.144Z,1.00
2023-03-19T21:01:56.540Z,1.00
2023-03-19T21:04:39.242Z,1.00
2023-03-19T21:07:35.904Z,1.00
2023-03-19T21:10:28.602Z,1.00
2023-03-19T21:13:17.690Z,1.00
2023-03-19T21:16:00.285Z,48.20
2023-03-19T21:18:42.899Z,90.20
2023-03-19T21:21:32.546Z,99.90
2023-03-19T21:24:20.894Z,99.90
2023-03-19T21:27:04.118Z,99.90
2023-03-19T21:29:47.121Z,99.90
2023-03-19T21:32:30.359Z,99.90
2023-03-19T21:35:21.597Z,99.90
2023-03-19T21:38:04.738Z,99.90
2023-03-19T21:40:48.168Z,99.90
2023-03-19T21:43:39.922Z,99.90
2023-03-19T21:46:26.325Z,99.90
2023-03-19T21:49:12.149Z,99.90
2023-03-19T21:51:57.145Z,1.00
2023-03-19T21:54:40.474Z,1.00
2023-03-19T21:57:24.121Z,1.00
2023-03-19T22:00:15.831Z,1.00
2023-03-19T22:02:58.293Z,1.00
2023-03-19T22:05:40.804Z,1.00
2023-03-19T22:08:25.212Z,1.00
2023-03-19T22:11:22.788Z,1.00
2023-03-19T22:14:13.769Z,1.00
2023-03-19T22:16:56.852Z,1.00
2023-03-19T22:19:39.409Z,1.00
2023-03-19T22:22:21.659Z,1.00
2023-03-19T22:25:04.488Z,1.00
2023-03-19T22:27:49.408Z,1.00
2023-03-19T22:30:37.977Z,1.00
2023-03-19T22:33:22.830Z,1.00
2023-03-19T22:36:06.035Z,1.00
2023-03-19T22:38:49.019Z,1.00
2023-03-19T22:41:34.611Z,1.00
2023-03-19T22:44:27.826Z,1.00
2023-03-19T22:47:21.767Z,1.00
2023-03-19T22:50:05.614Z,1.00
2023-03-19T22:52:48.804Z,1.00
2023-03-19T22:55:32.058Z,1.00
2023-03-19T22:58:14.541Z,1.00
2023-03-19T23:00:57.595Z,5.50
2023-03-19T23:03:41.991Z,40.50
2023-03-19T23:06:30.634Z,54.70
2023-03-19T23:09:17.823Z,75.20
2023-03-19T23:12:01.584Z,99.90
2023-03-19T23:14:44.320Z,99.90
2023-03-19T23:17:26.516Z,99.90
2023-03-19T23:20:14.260Z,99.90
2023-03-19T23:22:57.747Z,99.90
2023-03-19T23:25:41.841Z,99.90
2023-03-19T23:28:32.211Z,99.90
2023-03-19T23:31:14.716Z,99.90
2023-03-19T23:33:56.944Z,99.90
2023-03-19T23:36:39.548Z,99.90
2023-03-19T23:39:21.790Z,99.90
2023-03-19T23:42:04.408Z,99.90
2023-03-19T23:44:48.242Z,99.90
2023-03-19T23:47:31.361Z,99.90
2023-03-19T23:50:13.787Z,99.90
2023-03-19T23:52:56.496Z,99.90
2023-03-19T23:55:39.352Z,99.90
2023-03-19T23:58:24.648Z,99.90
